sensor_id;sensor_type;location;lat;lon;timestamp;pressure;altitude;pressure_sealevel;temperature;humidity
22647;BME280;11490;42.726;23.268;2022-08-16T00:00:52;94800.81;;;19.66;93.70
22647;BME280;11490;42.726;23.268;2022-08-16T00:03:18;94802.81;;;19.96;92.56
22647;BME280;11490;42.726;23.268;2022-08-16T00:05:44;94796.66;;;20.04;91.05
22647;BME280;11490;42.726;23.268;2022-08-16T00:08:09;94794.25;;;20.03;90.48
22647;BME280;11490;42.726;23.268;2022-08-16T00:10:35;94780.66;;;19.94;92.78
22647;BME280;11490;42.726;23.268;2022-08-16T00:13:04;94794.81;;;20.13;91.42
22647;BME280;11490;42.726;23.268;2022-08-16T00:15:37;94786.22;;;20.11;91.03
22647;BME280;11490;42.726;23.268;2022-08-16T00:18:04;94778.09;;;19.89;92.88
22647;BME280;11490;42.726;23.268;2022-08-16T00:20:32;94801.72;;;19.97;93.70
22647;BME280;11490;42.726;23.268;2022-08-16T00:22:58;94793.84;;;20.09;91.95
22647;BME280;11490;42.726;23.268;2022-08-16T00:25:24;94782.69;;;20.11;91.15
22647;BME280;11490;42.726;23.268;2022-08-16T00:27:50;94807.25;;;20.14;93.33
22647;BME280;11490;42.726;23.268;2022-08-16T00:30:19;94813.09;;;20.08;92.97
22647;BME280;11490;42.726;23.268;2022-08-16T00:32:47;94813.63;;;19.74;94.76
22647;BME280;11490;42.726;23.268;2022-08-16T00:35:16;94804.66;;;19.87;94.33
22647;BME280;11490;42.726;23.268;2022-08-16T00:37:45;94804.59;;;20.01;92.93
22647;BME280;11490;42.726;23.268;2022-08-16T00:40:22;94811.69;;;20.10;92.00
22647;BME280;11490;42.726;23.268;2022-08-16T00:42:48;94811.31;;;20.03;91.62
22647;BME280;11490;42.726;23.268;2022-08-16T00:47:46;94809.03;;;19.96;91.86
22647;BME280;11490;42.726;23.268;2022-08-16T00:50:12;94815.19;;;19.75;93.45
22647;BME280;11490;42.726;23.268;2022-08-16T00:52:41;94826.00;;;19.88;92.54
22647;BME280;11490;42.726;23.268;2022-08-16T00:55:06;94818.19;;;19.87;92.00
22647;BME280;11490;42.726;23.268;2022-08-16T00:57:33;94836.03;;;19.88;92.39
22647;BME280;11490;42.726;23.268;2022-08-16T00:59:59;94835.25;;;19.74;93.41
22647;BME280;11490;42.726;23.268;2022-08-16T01:02:26;94823.72;;;19.68;94.21
22647;BME280;11490;42.726;23.268;2022-08-16T01:04:52;94821.59;;;19.79;93.38
22647;BME280;11490;42.726;23.268;2022-08-16T01:07:17;94837.00;;;19.92;93.17
22647;BME280;11490;42.726;23.268;2022-08-16T01:09:43;94826.09;;;19.83;92.78
22647;BME280;11490;42.726;23.268;2022-08-16T01:12:12;94840.22;;;19.94;93.39
22647;BME280;11490;42.726;23.268;2022-08-16T01:14:46;94827.81;;;19.79;94.07
22647;BME280;11490;42.726;23.268;2022-08-16T01:17:14;94835.41;;;19.91;94.29
22647;BME280;11490;42.726;23.268;2022-08-16T01:19:47;94839.19;;;19.90;93.82
22647;BME280;11490;42.726;23.268;2022-08-16T01:22:49;94842.41;;;19.92;94.23
22647;BME280;11490;42.726;23.268;2022-08-16T01:25:16;94848.22;;;19.99;94.48
22647;BME280;11490;42.726;23.268;2022-08-16T01:27:46;94846.00;;;20.01;93.56
22647;BME280;11490;42.726;23.268;2022-08-16T01:30:19;94845.50;;;19.99;93.38
22647;BME280;11490;42.726;23.268;2022-08-16T01:32:45;94855.59;;;20.07;93.45
22647;BME280;11490;42.726;23.268;2022-08-16T01:35:18;94834.19;;;19.97;92.58
22647;BME280;11490;42.726;23.268;2022-08-16T01:37:51;94841.66;;;19.78;94.44
22647;BME280;11490;42.726;23.268;2022-08-16T01:40:20;94846.84;;;19.88;95.10
22647;BME280;11490;42.726;23.268;2022-08-16T01:42:47;94841.63;;;19.91;94.28
22647;BME280;11490;42.726;23.268;2022-08-16T01:45:14;94846.72;;;19.93;93.80
22647;BME280;11490;42.726;23.268;2022-08-16T01:47:40;94848.84;;;19.96;94.10
22647;BME280;11490;42.726;23.268;2022-08-16T01:50:07;94853.63;;;19.99;94.47
22647;BME280;11490;42.726;23.268;2022-08-16T01:52:33;94858.81;;;20.09;94.27
22647;BME280;11490;42.726;23.268;2022-08-16T01:54:59;94862.19;;;20.15;93.34
22647;BME280;11490;42.726;23.268;2022-08-16T01:57:25;94870.53;;;20.18;93.25
22647;BME280;11490;42.726;23.268;2022-08-16T01:59:51;94857.34;;;20.03;93.46
22647;BME280;11490;42.726;23.268;2022-08-16T02:02:16;94863.25;;;20.05;93.99
22647;BME280;11490;42.726;23.268;2022-08-16T02:04:42;94878.16;;;20.16;93.98
22647;BME280;11490;42.726;23.268;2022-08-16T02:07:08;94884.44;;;20.25;93.46
22647;BME280;11490;42.726;23.268;2022-08-16T02:09:36;94893.16;;;20.22;93.45
22647;BME280;11490;42.726;23.268;2022-08-16T02:12:03;94901.16;;;20.05;94.65
22647;BME280;11490;42.726;23.268;2022-08-16T02:14:32;94920.81;;;19.97;95.37
22647;BME280;11490;42.726;23.268;2022-08-16T02:16:59;94911.81;;;19.88;95.66
22647;BME280;11490;42.726;23.268;2022-08-16T02:19:28;94901.31;;;19.73;95.58
22647;BME280;11490;42.726;23.268;2022-08-16T02:21:56;94911.81;;;19.88;95.16
22647;BME280;11490;42.726;23.268;2022-08-16T02:24:22;94911.03;;;19.74;95.70
22647;BME280;11490;42.726;23.268;2022-08-16T02:26:50;94890.19;;;19.47;100.00
22647;BME280;11490;42.726;23.268;2022-08-16T02:29:17;94906.78;;;19.40;100.00
22647;BME280;11490;42.726;23.268;2022-08-16T02:31:47;94924.69;;;19.09;100.00
22647;BME280;11490;42.726;23.268;2022-08-16T02:34:15;94901.44;;;19.08;100.00
22647;BME280;11490;42.726;23.268;2022-08-16T02:36:41;94903.97;;;19.18;100.00
22647;BME280;11490;42.726;23.268;2022-08-16T02:39:09;94914.56;;;19.01;100.00
22647;BME280;11490;42.726;23.268;2022-08-16T02:41:35;94910.38;;;19.22;100.00
22647;BME280;11490;42.726;23.268;2022-08-16T02:44:03;94897.25;;;19.02;100.00
22647;BME280;11490;42.726;23.268;2022-08-16T02:46:30;94910.88;;;19.24;100.00
22647;BME280;11490;42.726;23.268;2022-08-16T02:48:55;94893.94;;;19.05;100.00
22647;BME280;11490;42.726;23.268;2022-08-16T02:51:21;94905.19;;;19.12;100.00
22647;BME280;11490;42.726;23.268;2022-08-16T02:53:47;94907.19;;;19.20;100.00
22647;BME280;11490;42.726;23.268;2022-08-16T02:56:16;94904.13;;;18.94;100.00
22647;BME280;11490;42.726;23.268;2022-08-16T02:58:44;94904.13;;;18.94;100.00
22647;BME280;11490;42.726;23.268;2022-08-16T03:01:10;94897.53;;;19.14;100.00
22647;BME280;11490;42.726;23.268;2022-08-16T03:03:36;94898.97;;;19.25;100.00
22647;BME280;11490;42.726;23.268;2022-08-16T03:06:02;94897.13;;;19.07;100.00
22647;BME280;11490;42.726;23.268;2022-08-16T03:08:28;94891.16;;;19.10;100.00
22647;BME280;11490;42.726;23.268;2022-08-16T03:10:53;94889.84;;;19.07;100.00
22647;BME280;11490;42.726;23.268;2022-08-16T03:13:19;94872.22;;;19.10;100.00
22647;BME280;11490;42.726;23.268;2022-08-16T03:15:46;94863.31;;;18.96;100.00
22647;BME280;11490;42.726;23.268;2022-08-16T03:18:12;94865.31;;;19.17;100.00
22647;BME280;11490;42.726;23.268;2022-08-16T03:20:38;94874.91;;;18.96;100.00
22647;BME280;11490;42.726;23.268;2022-08-16T03:23:04;94870.28;;;18.83;100.00
22647;BME280;11490;42.726;23.268;2022-08-16T03:25:31;94881.31;;;18.87;100.00
22647;BME280;11490;42.726;23.268;2022-08-16T03:27:56;94861.88;;;18.98;100.00
22647;BME280;11490;42.726;23.268;2022-08-16T03:30:25;94870.31;;;19.24;100.00
22647;BME280;11490;42.726;23.268;2022-08-16T03:32:51;94870.31;;;19.24;100.00
22647;BME280;11490;42.726;23.268;2022-08-16T03:35:23;94875.22;;;19.22;100.00
22647;BME280;11490;42.726;23.268;2022-08-16T03:37:53;94875.63;;;19.29;100.00
22647;BME280;11490;42.726;23.268;2022-08-16T03:40:21;94846.47;;;18.99;100.00
22647;BME280;11490;42.726;23.268;2022-08-16T03:42:46;94863.91;;;19.06;100.00
22647;BME280;11490;42.726;23.268;2022-08-16T03:45:12;94865.72;;;19.11;100.00
22647;BME280;11490;42.726;23.268;2022-08-16T03:47:41;94865.03;;;19.33;100.00
22647;BME280;11490;42.726;23.268;2022-08-16T03:50:08;94877.63;;;19.37;100.00
22647;BME280;11490;42.726;23.268;2022-08-16T03:52:34;94875.53;;;19.34;100.00
22647;BME280;11490;42.726;23.268;2022-08-16T03:55:02;94879.75;;;19.40;100.00
22647;BME280;11490;42.726;23.268;2022-08-16T03:57:29;94874.19;;;19.50;100.00
22647;BME280;11490;42.726;23.268;2022-08-16T03:59:55;94880.97;;;19.62;100.00
22647;BME280;11490;42.726;23.268;2022-08-16T04:02:20;94884.75;;;19.60;100.00
22647;BME280;11490;42.726;23.268;2022-08-16T04:04:47;94882.56;;;19.63;100.00
22647;BME280;11490;42.726;23.268;2022-08-16T04:07:13;94878.75;;;19.64;100.00
22647;BME280;11490;42.726;23.268;2022-08-16T04:09:39;94872.75;;;19.67;100.00
22647;BME280;11490;42.726;23.268;2022-08-16T04:12:06;94875.44;;;19.39;100.00
22647;BME280;11490;42.726;23.268;2022-08-16T04:14:31;94866.31;;;19.08;100.00
22647;BME280;11490;42.726;23.268;2022-08-16T04:16:57;94874.13;;;19.23;100.00
22647;BME280;11490;42.726;23.268;2022-08-16T04:19:23;94874.34;;;19.27;100.00
22647;BME280;11490;42.726;23.268;2022-08-16T04:21:50;94872.72;;;19.26;100.00
22647;BME280;11490;42.726;23.268;2022-08-16T04:24:16;94872.91;;;19.29;100.00
22647;BME280;11490;42.726;23.268;2022-08-16T04:26:41;94870.53;;;19.41;100.00
22647;BME280;11490;42.726;23.268;2022-08-16T04:29:06;94872.91;;;19.29;100.00
22647;BME280;11490;42.726;23.268;2022-08-16T04:31:32;94875.03;;;19.32;100.00
22647;BME280;11490;42.726;23.268;2022-08-16T04:33:57;94875.16;;;19.27;100.00
22647;BME280;11490;42.726;23.268;2022-08-16T04:36:26;94868.03;;;19.17;100.00
22647;BME280;11490;42.726;23.268;2022-08-16T04:38:53;94877.22;;;19.16;100.00
22647;BME280;11490;42.726;23.268;2022-08-16T04:41:19;94907.78;;;19.31;100.00
22647;BME280;11490;42.726;23.268;2022-08-16T04:43:44;94905.19;;;19.39;100.00
22647;BME280;11490;42.726;23.268;2022-08-16T04:46:10;94880.63;;;19.08;100.00
22647;BME280;11490;42.726;23.268;2022-08-16T04:48:36;94877.44;;;19.20;100.00
22647;BME280;11490;42.726;23.268;2022-08-16T04:51:02;94879.31;;;19.06;100.00
22647;BME280;11490;42.726;23.268;2022-08-16T04:53:27;94890.97;;;19.20;100.00
22647;BME280;11490;42.726;23.268;2022-08-16T04:55:53;94874.94;;;19.10;100.00
22647;BME280;11490;42.726;23.268;2022-08-16T04:58:19;94881.94;;;19.25;100.00
22647;BME280;11490;42.726;23.268;2022-08-16T05:00:45;94898.38;;;19.42;100.00
22647;BME280;11490;42.726;23.268;2022-08-16T05:03:11;94896.44;;;19.29;100.00
22647;BME280;11490;42.726;23.268;2022-08-16T05:05:39;94874.13;;;19.09;100.00
22647;BME280;11490;42.726;23.268;2022-08-16T05:08:06;94883.53;;;19.39;100.00
22647;BME280;11490;42.726;23.268;2022-08-16T05:10:32;94887.28;;;19.57;100.00
22647;BME280;11490;42.726;23.268;2022-08-16T05:12:59;94895.78;;;19.78;100.00
22647;BME280;11490;42.726;23.268;2022-08-16T05:15:25;94891.25;;;19.87;100.00
22647;BME280;11490;42.726;23.268;2022-08-16T05:17:51;94888.44;;;19.92;100.00
22647;BME280;11490;42.726;23.268;2022-08-16T05:20:17;94881.91;;;19.93;100.00
22647;BME280;11490;42.726;23.268;2022-08-16T05:22:42;94895.63;;;20.10;100.00
22647;BME280;11490;42.726;23.268;2022-08-16T05:25:09;94912.03;;;20.27;100.00
22647;BME280;11490;42.726;23.268;2022-08-16T05:27:35;94910.13;;;20.14;100.00
22647;BME280;11490;42.726;23.268;2022-08-16T05:30:02;94914.91;;;20.31;100.00
22647;BME280;11490;42.726;23.268;2022-08-16T05:32:28;94910.72;;;20.39;100.00
22647;BME280;11490;42.726;23.268;2022-08-16T05:34:53;94905.66;;;20.46;100.00
22647;BME280;11490;42.726;23.268;2022-08-16T05:37:19;94910.25;;;20.59;100.00
22647;BME280;11490;42.726;23.268;2022-08-16T05:39:47;94896.78;;;20.54;100.00
22647;BME280;11490;42.726;23.268;2022-08-16T05:42:13;94904.72;;;20.14;100.00
22647;BME280;11490;42.726;23.268;2022-08-16T05:44:38;94908.13;;;20.33;100.00
22647;BME280;11490;42.726;23.268;2022-08-16T05:47:04;94902.06;;;20.36;100.00
22647;BME280;11490;42.726;23.268;2022-08-16T05:49:30;94897.53;;;20.46;100.00
22647;BME280;11490;42.726;23.268;2022-08-16T05:51:58;94898.78;;;20.62;100.00
22647;BME280;11490;42.726;23.268;2022-08-16T05:54:34;94865.59;;;20.34;100.00
22647;BME280;11490;42.726;23.268;2022-08-16T05:57:01;94901.53;;;20.70;100.00
22647;BME280;11490;42.726;23.268;2022-08-16T05:59:36;94849.50;;;20.38;100.00
22647;BME280;11490;42.726;23.268;2022-08-16T06:02:15;94822.19;;;20.48;100.00
22647;BME280;11490;42.726;23.268;2022-08-16T06:04:46;94823.16;;;20.52;100.00
22647;BME280;11490;42.726;23.268;2022-08-16T06:07:17;94855.72;;;20.83;100.00
22647;BME280;11490;42.726;23.268;2022-08-16T06:09:50;94877.72;;;21.12;100.00
22647;BME280;11490;42.726;23.268;2022-08-16T06:12:18;94853.56;;;21.02;100.00
22647;BME280;11490;42.726;23.268;2022-08-16T06:14:44;94902.75;;;21.40;100.00
22647;BME280;11490;42.726;23.268;2022-08-16T06:17:09;94870.28;;;20.95;100.00
22647;BME280;11490;42.726;23.268;2022-08-16T06:19:34;94882.66;;;21.10;100.00
22647;BME280;11490;42.726;23.268;2022-08-16T06:22:00;94879.44;;;21.39;100.00
22647;BME280;11490;42.726;23.268;2022-08-16T06:24:25;94883.09;;;21.74;100.00
22647;BME280;11490;42.726;23.268;2022-08-16T06:26:51;94876.06;;;21.81;100.00
22647;BME280;11490;42.726;23.268;2022-08-16T06:29:16;94865.53;;;21.88;98.99
22647;BME280;11490;42.726;23.268;2022-08-16T06:31:42;94856.31;;;22.07;99.19
22647;BME280;11490;42.726;23.268;2022-08-16T06:34:07;94864.94;;;22.09;100.00
22647;BME280;11490;42.726;23.268;2022-08-16T06:36:32;94880.00;;;22.32;99.10
22647;BME280;11490;42.726;23.268;2022-08-16T06:38:58;94852.00;;;22.23;99.52
22647;BME280;11490;42.726;23.268;2022-08-16T06:41:24;94888.47;;;22.48;96.59
22647;BME280;11490;42.726;23.268;2022-08-16T06:43:50;94870.72;;;22.50;94.99
22647;BME280;11490;42.726;23.268;2022-08-16T06:46:28;94848.19;;;22.50;93.10
22647;BME280;11490;42.726;23.268;2022-08-16T06:49:02;94878.22;;;22.53;89.71
22647;BME280;11490;42.726;23.268;2022-08-16T06:51:28;94886.69;;;22.95;93.12
22647;BME280;11490;42.726;23.268;2022-08-16T06:53:53;94888.25;;;23.13;92.58
22647;BME280;11490;42.726;23.268;2022-08-16T06:56:19;94878.47;;;23.21;93.06
22647;BME280;11490;42.726;23.268;2022-08-16T06:58:44;94878.88;;;23.31;87.45
22647;BME280;11490;42.726;23.268;2022-08-16T07:01:09;94867.69;;;23.24;91.58
22647;BME280;11490;42.726;23.268;2022-08-16T07:03:35;94873.22;;;23.07;90.78
22647;BME280;11490;42.726;23.268;2022-08-16T07:06:01;94868.72;;;23.11;90.72
22647;BME280;11490;42.726;23.268;2022-08-16T07:08:26;94857.84;;;23.11;90.36
22647;BME280;11490;42.726;23.268;2022-08-16T07:10:52;94853.69;;;23.05;89.93
22647;BME280;11490;42.726;23.268;2022-08-16T07:13:18;94863.19;;;23.37;89.48
22647;BME280;11490;42.726;23.268;2022-08-16T07:15:45;94860.63;;;23.70;85.90
22647;BME280;11490;42.726;23.268;2022-08-16T07:18:10;94840.28;;;23.76;86.30
22647;BME280;11490;42.726;23.268;2022-08-16T07:20:37;94846.06;;;23.95;86.77
22647;BME280;11490;42.726;23.268;2022-08-16T07:23:04;94812.19;;;23.84;86.75
22647;BME280;11490;42.726;23.268;2022-08-16T07:25:31;94850.69;;;24.24;86.16
22647;BME280;11490;42.726;23.268;2022-08-16T07:27:57;94821.44;;;24.12;85.25
22647;BME280;11490;42.726;23.268;2022-08-16T07:30:23;94850.03;;;24.48;85.21
22647;BME280;11490;42.726;23.268;2022-08-16T07:32:49;94848.72;;;24.54;87.39
22647;BME280;11490;42.726;23.268;2022-08-16T07:35:16;94840.88;;;24.52;81.80
22647;BME280;11490;42.726;23.268;2022-08-16T07:37:42;94842.00;;;24.84;80.78
22647;BME280;11490;42.726;23.268;2022-08-16T07:40:08;94853.44;;;24.99;79.54
22647;BME280;11490;42.726;23.268;2022-08-16T07:42:34;94844.34;;;25.07;81.37
22647;BME280;11490;42.726;23.268;2022-08-16T07:44:59;94846.91;;;25.24;80.85
22647;BME280;11490;42.726;23.268;2022-08-16T07:47:24;94841.22;;;25.41;79.35
22647;BME280;11490;42.726;23.268;2022-08-16T07:49:50;94827.91;;;25.27;77.53
22647;BME280;11490;42.726;23.268;2022-08-16T07:52:16;94835.88;;;25.57;78.25
22647;BME280;11490;42.726;23.268;2022-08-16T07:54:41;94842.50;;;25.68;73.34
22647;BME280;11490;42.726;23.268;2022-08-16T07:57:07;94833.28;;;25.73;72.75
22647;BME280;11490;42.726;23.268;2022-08-16T07:59:32;94850.34;;;25.94;71.20
22647;BME280;11490;42.726;23.268;2022-08-16T08:01:57;94851.09;;;26.19;73.96
22647;BME280;11490;42.726;23.268;2022-08-16T08:04:23;94849.97;;;26.32;71.88
22647;BME280;11490;42.726;23.268;2022-08-16T08:06:48;94846.84;;;26.46;70.08
22647;BME280;11490;42.726;23.268;2022-08-16T08:09:15;94848.53;;;26.50;68.76
22647;BME280;11490;42.726;23.268;2022-08-16T08:11:40;94825.09;;;26.65;69.41
22647;BME280;11490;42.726;23.268;2022-08-16T08:14:07;94841.94;;;26.79;67.76
22647;BME280;11490;42.726;23.268;2022-08-16T08:16:32;94832.66;;;26.83;68.74
22647;BME280;11490;42.726;23.268;2022-08-16T08:18:59;94865.69;;;27.18;63.88
22647;BME280;11490;42.726;23.268;2022-08-16T08:21:25;94845.91;;;27.09;65.54
22647;BME280;11490;42.726;23.268;2022-08-16T08:23:51;94842.22;;;27.17;64.10
22647;BME280;11490;42.726;23.268;2022-08-16T08:26:17;94849.09;;;27.43;62.15
22647;BME280;11490;42.726;23.268;2022-08-16T08:28:44;94832.66;;;27.43;62.41
22647;BME280;11490;42.726;23.268;2022-08-16T08:31:09;94834.22;;;27.72;64.74
22647;BME280;11490;42.726;23.268;2022-08-16T08:33:36;94828.78;;;27.75;62.02
22647;BME280;11490;42.726;23.268;2022-08-16T08:36:04;94849.41;;;27.69;57.92
22647;BME280;11490;42.726;23.268;2022-08-16T08:38:32;94829.78;;;27.67;60.24
22647;BME280;11490;42.726;23.268;2022-08-16T08:40:58;94837.78;;;27.91;59.88
22647;BME280;11490;42.726;23.268;2022-08-16T08:43:23;94848.91;;;27.99;56.48
22647;BME280;11490;42.726;23.268;2022-08-16T08:45:50;94856.75;;;28.31;61.00
22647;BME280;11490;42.726;23.268;2022-08-16T08:48:17;94875.59;;;28.33;58.03
22647;BME280;11490;42.726;23.268;2022-08-16T08:50:42;94847.28;;;28.29;57.17
22647;BME280;11490;42.726;23.268;2022-08-16T08:53:08;94853.50;;;28.45;57.63
22647;BME280;11490;42.726;23.268;2022-08-16T08:55:34;94842.03;;;28.40;57.03
22647;BME280;11490;42.726;23.268;2022-08-16T08:58:00;94864.72;;;28.75;56.95
22647;BME280;11490;42.726;23.268;2022-08-16T09:00:26;94839.50;;;28.89;56.60
22647;BME280;11490;42.726;23.268;2022-08-16T09:02:54;94825.66;;;28.82;58.77
22647;BME280;11490;42.726;23.268;2022-08-16T09:05:21;94852.91;;;29.13;56.00
22647;BME280;11490;42.726;23.268;2022-08-16T09:07:47;94840.34;;;29.12;56.65
22647;BME280;11490;42.726;23.268;2022-08-16T09:10:12;94839.75;;;29.22;54.08
22647;BME280;11490;42.726;23.268;2022-08-16T09:12:38;94841.03;;;29.48;56.89
22647;BME280;11490;42.726;23.268;2022-08-16T09:15:06;94831.78;;;29.59;56.20
22647;BME280;11490;42.726;23.268;2022-08-16T09:17:32;94847.94;;;29.87;53.81
22647;BME280;11490;42.726;23.268;2022-08-16T09:19:58;94860.78;;;30.02;52.21
22647;BME280;11490;42.726;23.268;2022-08-16T09:22:25;94850.28;;;29.85;52.97
22647;BME280;11490;42.726;23.268;2022-08-16T09:24:51;94842.59;;;29.94;50.33
22647;BME280;11490;42.726;23.268;2022-08-16T09:27:17;94861.66;;;29.61;54.27
22647;BME280;11490;42.726;23.268;2022-08-16T09:29:43;94838.97;;;29.67;53.37
22647;BME280;11490;42.726;23.268;2022-08-16T09:32:09;94854.28;;;29.42;52.98
22647;BME280;11490;42.726;23.268;2022-08-16T09:34:34;94843.22;;;29.38;55.24
22647;BME280;11490;42.726;23.268;2022-08-16T09:37:00;94843.06;;;29.31;56.54
22647;BME280;11490;42.726;23.268;2022-08-16T09:39:26;94844.19;;;29.50;55.91
22647;BME280;11490;42.726;23.268;2022-08-16T09:41:53;94856.13;;;29.83;53.24
22647;BME280;11490;42.726;23.268;2022-08-16T09:44:22;94844.13;;;29.69;53.58
22647;BME280;11490;42.726;23.268;2022-08-16T09:46:52;94819.19;;;29.58;53.90
22647;BME280;11490;42.726;23.268;2022-08-16T09:49:19;94842.25;;;29.99;53.11
22647;BME280;11490;42.726;23.268;2022-08-16T09:51:45;94853.38;;;30.33;52.06
22647;BME280;11490;42.726;23.268;2022-08-16T09:54:10;94838.13;;;30.12;50.41
22647;BME280;11490;42.726;23.268;2022-08-16T09:56:38;94827.09;;;30.09;51.69
22647;BME280;11490;42.726;23.268;2022-08-16T09:59:06;94867.22;;;30.66;51.68
22647;BME280;11490;42.726;23.268;2022-08-16T10:01:31;94832.97;;;30.37;50.90
22647;BME280;11490;42.726;23.268;2022-08-16T10:03:57;94844.25;;;30.55;53.47
22647;BME280;11490;42.726;23.268;2022-08-16T10:06:24;94828.81;;;30.20;49.78
22647;BME280;11490;42.726;23.268;2022-08-16T10:08:50;94830.44;;;29.72;49.38
22647;BME280;11490;42.726;23.268;2022-08-16T10:11:15;94859.31;;;30.08;50.67
22647;BME280;11490;42.726;23.268;2022-08-16T10:14:00;94826.91;;;29.72;51.64
22647;BME280;11490;42.726;23.268;2022-08-16T10:16:26;94818.56;;;29.68;53.78
22647;BME280;11490;42.726;23.268;2022-08-16T10:18:51;94840.47;;;29.61;52.24
22647;BME280;11490;42.726;23.268;2022-08-16T10:21:17;94852.69;;;29.90;50.09
22647;BME280;11490;42.726;23.268;2022-08-16T10:23:43;94838.13;;;30.12;49.88
22647;BME280;11490;42.726;23.268;2022-08-16T10:26:09;94846.53;;;30.23;51.60
22647;BME280;11490;42.726;23.268;2022-08-16T10:28:35;94835.28;;;30.05;52.78
22647;BME280;11490;42.726;23.268;2022-08-16T10:31:02;94830.38;;;29.69;53.12
22647;BME280;11490;42.726;23.268;2022-08-16T10:33:28;94823.59;;;29.63;53.75
22647;BME280;11490;42.726;23.268;2022-08-16T10:35:54;94864.25;;;29.31;54.31
22647;BME280;11490;42.726;23.268;2022-08-16T10:38:20;94840.97;;;29.02;57.89
22647;BME280;11490;42.726;23.268;2022-08-16T10:40:45;94811.19;;;28.65;59.37
22647;BME280;11490;42.726;23.268;2022-08-16T10:43:12;94831.25;;;28.50;60.58
22647;BME280;11490;42.726;23.268;2022-08-16T10:45:38;94829.06;;;27.86;58.61
22647;BME280;11490;42.726;23.268;2022-08-16T10:48:08;94833.50;;;28.10;58.44
22647;BME280;11490;42.726;23.268;2022-08-16T10:50:36;94823.19;;;28.38;54.14
22647;BME280;11490;42.726;23.268;2022-08-16T10:53:02;94813.38;;;28.56;52.11
22647;BME280;11490;42.726;23.268;2022-08-16T10:55:35;94806.53;;;29.08;53.64
22647;BME280;11490;42.726;23.268;2022-08-16T10:58:04;94826.00;;;29.41;51.52
22647;BME280;11490;42.726;23.268;2022-08-16T11:00:33;94823.44;;;30.01;49.12
22647;BME280;11490;42.726;23.268;2022-08-16T11:03:00;94827.81;;;30.06;50.81
22647;BME280;11490;42.726;23.268;2022-08-16T11:05:29;94843.34;;;30.47;47.09
22647;BME280;11490;42.726;23.268;2022-08-16T11:07:56;94827.91;;;30.69;46.27
22647;BME280;11490;42.726;23.268;2022-08-16T11:10:33;94802.63;;;30.60;45.21
22647;BME280;11490;42.726;23.268;2022-08-16T11:12:59;94811.88;;;29.92;48.89
22647;BME280;11490;42.726;23.268;2022-08-16T11:15:25;94827.53;;;29.88;49.07
22647;BME280;11490;42.726;23.268;2022-08-16T11:17:52;94813.88;;;29.69;51.38
22647;BME280;11490;42.726;23.268;2022-08-16T11:20:18;94802.28;;;29.33;52.36
22647;BME280;11490;42.726;23.268;2022-08-16T11:22:45;94842.72;;;29.56;53.56
22647;BME280;11490;42.726;23.268;2022-08-16T11:25:12;94827.47;;;29.16;54.51
22647;BME280;11490;42.726;23.268;2022-08-16T11:27:38;94820.94;;;28.44;62.74
22647;BME280;11490;42.726;23.268;2022-08-16T11:30:05;94857.34;;;27.90;67.21
22647;BME280;11490;42.726;23.268;2022-08-16T11:32:32;94845.38;;;27.19;70.72
22647;BME280;11490;42.726;23.268;2022-08-16T11:35:04;94819.00;;;26.56;75.51
22647;BME280;11490;42.726;23.268;2022-08-16T11:37:30;94811.31;;;26.33;81.33
22647;BME280;11490;42.726;23.268;2022-08-16T11:39:57;94814.03;;;25.81;83.04
22647;BME280;11490;42.726;23.268;2022-08-16T11:42:22;94820.53;;;25.64;89.62
22647;BME280;11490;42.726;23.268;2022-08-16T11:44:48;94800.94;;;25.14;79.99
22647;BME280;11490;42.726;23.268;2022-08-16T11:47:13;94780.81;;;25.30;86.34
22647;BME280;11490;42.726;23.268;2022-08-16T11:49:39;94807.97;;;25.27;89.78
22647;BME280;11490;42.726;23.268;2022-08-16T11:52:05;94813.22;;;25.32;91.18
22647;BME280;11490;42.726;23.268;2022-08-16T11:54:31;94803.88;;;25.33;91.97
22647;BME280;11490;42.726;23.268;2022-08-16T11:56:58;94803.47;;;25.67;90.58
22647;BME280;11490;42.726;23.268;2022-08-16T11:59:24;94796.13;;;25.96;91.90
22647;BME280;11490;42.726;23.268;2022-08-16T12:01:53;94788.94;;;26.03;81.94
22647;BME280;11490;42.726;23.268;2022-08-16T12:04:19;94786.41;;;26.51;85.28
22647;BME280;11490;42.726;23.268;2022-08-16T12:06:46;94790.34;;;26.93;82.39
22647;BME280;11490;42.726;23.268;2022-08-16T12:09:11;94796.72;;;27.13;85.12
22647;BME280;11490;42.726;23.268;2022-08-16T12:11:37;94802.13;;;27.25;82.88
22647;BME280;11490;42.726;23.268;2022-08-16T12:14:04;94793.44;;;26.79;78.25
22647;BME280;11490;42.726;23.268;2022-08-16T12:16:34;94786.91;;;26.68;83.52
22647;BME280;11490;42.726;23.268;2022-08-16T12:19:03;94795.59;;;26.86;84.33
22647;BME280;11490;42.726;23.268;2022-08-16T12:21:29;94794.66;;;26.66;80.52
22647;BME280;11490;42.726;23.268;2022-08-16T12:23:54;94793.19;;;26.69;82.28
22647;BME280;11490;42.726;23.268;2022-08-16T12:26:20;94788.88;;;26.40;77.32
22647;BME280;11490;42.726;23.268;2022-08-16T12:28:47;94798.25;;;26.27;78.79
22647;BME280;11490;42.726;23.268;2022-08-16T12:31:14;94790.59;;;26.32;79.39
22647;BME280;11490;42.726;23.268;2022-08-16T12:33:40;94781.34;;;26.37;79.96
22647;BME280;11490;42.726;23.268;2022-08-16T12:36:07;94779.53;;;26.57;81.39
22647;BME280;11490;42.726;23.268;2022-08-16T12:38:33;94773.38;;;26.60;78.52
22647;BME280;11490;42.726;23.268;2022-08-16T12:40:58;94774.06;;;26.85;76.47
22647;BME280;11490;42.726;23.268;2022-08-16T12:43:25;94767.38;;;26.98;75.82
22647;BME280;11490;42.726;23.268;2022-08-16T12:45:54;94782.16;;;27.09;72.07
22647;BME280;11490;42.726;23.268;2022-08-16T12:48:23;94766.41;;;27.22;66.33